Thursday, September 29, 2016, 9:28 PM EDT

KSEG, Selinsgrove Penn Valley Airport

Location: Selinsgrove, PA, United States Lat: 40.817
Local Time: 9:28 PM EDT ( 1:28 GMT) Lon: -76.867
Time Zone: US/Eastern Elev: 449 ft

Show me the last for .
Show Decoded

2016-09-29 20:53 METAR KSEG 300053Z AUTO 03003KT 10SM OVC024 16/13 A3030 RMK AO2 SLP260 T01560128
                 =
2016-09-29 19:53 METAR KSEG 292353Z AUTO 06005KT 10SM OVC023 16/13 A3030 RMK AO2 SLP259 60001
                 T01560128 10167 20156 51003 =
2016-09-29 18:53 METAR KSEG 292253Z AUTO 07004KT 10SM OVC020 16/13 A3030 RMK AO2 SLP259 T01560133
                 =
2016-09-29 17:53 METAR KSEG 292153Z AUTO 07008KT 10SM OVC020 16/14 A3029 RMK AO2 SLP257 T01610139
                 =
2016-09-29 16:53 METAR KSEG 292053Z AUTO 08007KT 10SM OVC020 17/14 A3029 RMK AO2 SLP255 60001
                 T01670139 53002 =
2016-09-29 15:53 METAR KSEG 291953Z AUTO 05005KT 10SM OVC019 17/14 A3027 RMK AO2 SLP250 T01670144
                 =
2016-09-29 14:53 METAR KSEG 291853Z AUTO 07010G15KT 10SM OVC017 16/14 A3027 RMK AO2 RAE16 SLP251
                 P0001 T01610139 =
2016-09-29 13:53 METAR KSEG 291753Z AUTO 09007KT 10SM -RA OVC016 16/14 A3028 RMK AO2 RAB1658
                 SLP253 P0000 60029 T01560144 10161 20144 50008 =
2016-09-29 12:53 METAR KSEG 291653Z AUTO 10005KT 10SM OVC017 16/14 A3028 RMK AO2 SLP255 T01610144
                 =
2016-09-29 11:53 METAR KSEG 291553Z AUTO 03005KT 10SM OVC016 16/14 A3028 RMK AO2 RAE05 SLP252
                 P0000 T01560144 =
2016-09-29 11:06 METAR KSEG 291506Z AUTO 03005KT 10SM SCT013 BKN020 OVC050 15/14 A3027 RMK AO2
                 RAE05 P0000 T01500144 =
2016-09-29 10:53 METAR KSEG 291453Z AUTO 03004KT 10SM -RA FEW010 BKN013 OVC055 15/15 A3026 RMK
                 AO2 SLP245 P0012 60029 T01500150 50004 =
2016-09-29 10:45 METAR KSEG 291445Z AUTO 04005KT 4SM -RA BR SCT013 BKN020 OVC055 15/15 A3026 RMK
                 AO2 P0012 T01500150 =
2016-09-29 10:31 METAR KSEG 291431Z AUTO 2 1/2SM +RA BR SCT013 BKN018 OVC046 15/15 A3026 RMK AO2
                 P0009 T01500150 =
2016-09-29 09:53 METAR KSEG 291353Z AUTO 05005KT 3SM RA BR OVC017 14/14 A3025 RMK AO2 SLP245
                 P0015 T01440144 =
2016-09-29 09:35 METAR KSEG 291335Z AUTO 05004KT 2SM RA BR OVC017 14/14 A3026 RMK AO2 P0010
                 T01440144 =
2016-09-29 08:53 METAR KSEG 291253Z AUTO 06004KT 6SM -RA BR OVC016 15/14 A3024 RMK AO2 RAE08B28
                 SLP240 P0002 T01500139 =
2016-09-29 07:53 METAR KSEG 291153Z AUTO 04004KT 10SM -RA OVC018 14/14 A3021 RMK AO2 SLP230 P0004
                 60022 70038 T01440139 10161 20139 53010 =
2016-09-29 06:53 METAR KSEG 291053Z AUTO 04005KT 8SM -RA OVC017 14/14 A3019 RMK AO2 SLP223 P0004
                 T01440139 =
2016-09-29 05:53 METAR KSEG 290953Z AUTO 02005KT 10SM -RA OVC016 14/14 A3018 RMK AO2 SLP220 P0011
                 T01390139 =
2016-09-29 04:53 METAR KSEG 290853Z AUTO 05007KT 7SM -RA OVC018 14/13 A3018 RMK AO2 SLP220 P0003
                 60003 T01440133 53005 =
2016-09-29 03:53 METAR KSEG 290753Z AUTO 06007KT 10SM -RA OVC019 15/13 A3018 RMK AO2
                 RAB0657E26B43 SLP220 P0000 T01500133 =
2016-09-29 02:53 METAR KSEG 290653Z AUTO 08006KT 10SM OVC018 16/13 A3017 RMK AO2 SLP214 T01560133
                 =
2016-09-29 01:53 METAR KSEG 290553Z AUTO 08009KT 10SM OVC019 16/13 A3017 RMK AO2 SLP214 60015
                 T01610133 10183 20161 51007 =
2016-09-29 00:53 METAR KSEG 290453Z AUTO 10006KT 10SM OVC019 16/14 A3016 RMK AO2 SLP211 T01610139
                 402440072 =
2016-09-28 23:53 METAR KSEG 290353Z AUTO VRB03KT 10SM OVC020 17/14 A3016 RMK AO2 SLP212 T01670144
                 =
2016-09-28 22:53 METAR KSEG 290253Z AUTO 09009G18KT 10SM OVC021 17/15 A3015 RMK AO2 RAE37 SLP207
                 P0002 60015 T01720150 51013 =
2016-09-28 21:53 METAR KSEG 290153Z AUTO 09006KT 4SM +RA BR OVC020 17/16 A3014 RMK AO2 RAB17
                 SLP206 P0013 T01720161 =

Support USWX by starting your Amazon purchase here.